createdAt,value
2022-08-18T00:00:20.121Z,18.50
2022-08-18T00:03:00.475Z,18.50
2022-08-18T00:05:28.156Z,18.40
2022-08-18T00:07:57.980Z,18.30
2022-08-18T00:10:25.502Z,18.40
2022-08-18T00:12:52.100Z,18.40
2022-08-18T00:15:24.881Z,18.40
2022-08-18T00:17:51.407Z,18.30
2022-08-18T00:20:21.131Z,18.30
2022-08-18T00:22:47.995Z,18.30
2022-08-18T00:25:15.108Z,18.20
2022-08-18T00:27:41.765Z,19.10
2022-08-18T00:30:14.175Z,18.20
2022-08-18T00:32:44.450Z,18.20
2022-08-18T00:35:17.769Z,18.20
2022-08-18T00:37:44.170Z,18.20
2022-08-18T00:40:14.434Z,18.20
2022-08-18T00:42:47.189Z,18.10
2022-08-18T00:45:18.306Z,18.10
2022-08-18T00:47:45.250Z,18.00
2022-08-18T00:50:17.088Z,18.00
2022-08-18T00:52:53.573Z,18.00
2022-08-18T00:55:19.940Z,18.00
2022-08-18T00:57:46.257Z,18.00
2022-08-18T01:00:14.454Z,18.00
2022-08-18T01:02:55.084Z,17.90
2022-08-18T01:05:33.421Z,18.00
2022-08-18T01:07:59.673Z,17.90
2022-08-18T01:10:25.948Z,17.80
2022-08-18T01:12:53.996Z,17.80
2022-08-18T01:15:27.814Z,17.80
2022-08-18T01:18:15.700Z,17.70
2022-08-18T01:21:22.977Z,17.80
2022-08-18T01:23:49.615Z,17.90
2022-08-18T01:26:16.725Z,17.80
2022-08-18T01:28:44.752Z,17.80
2022-08-18T01:31:13.136Z,17.80
2022-08-18T01:33:42.220Z,17.70
2022-08-18T01:36:17.041Z,17.70
2022-08-18T01:38:44.742Z,17.60
2022-08-18T01:41:28.411Z,17.60
2022-08-18T01:43:56.874Z,17.60
2022-08-18T01:46:24.150Z,17.60
2022-08-18T01:48:50.440Z,17.60
2022-08-18T01:51:19.352Z,17.70
2022-08-18T01:53:45.625Z,17.80
2022-08-18T01:56:16.938Z,17.70
2022-08-18T01:58:43.873Z,17.60
2022-08-18T02:01:12.721Z,17.60
2022-08-18T02:03:41.115Z,17.60
2022-08-18T02:06:14.630Z,17.50
2022-08-18T02:08:43.713Z,17.50
2022-08-18T02:11:19.886Z,17.50
2022-08-18T02:13:46.159Z,17.50
2022-08-18T02:16:13.230Z,17.50
2022-08-18T02:18:47.623Z,17.50
2022-08-18T02:21:19.184Z,17.40
2022-08-18T02:23:53.223Z,17.40
2022-08-18T02:26:20.620Z,17.40
2022-08-18T02:28:46.862Z,17.40
2022-08-18T02:31:23.815Z,17.40
2022-08-18T02:33:52.635Z,17.40
2022-08-18T02:36:19.835Z,17.40
2022-08-18T02:38:46.095Z,17.40
2022-08-18T02:41:22.401Z,17.40
2022-08-18T02:43:49.305Z,17.40
2022-08-18T02:46:15.570Z,17.40
2022-08-18T02:48:42.083Z,17.10
2022-08-18T02:51:13.878Z,17.20
2022-08-18T02:53:41.562Z,17.20
2022-08-18T02:56:40.812Z,17.30
2022-08-18T02:59:11.165Z,17.40
2022-08-18T03:01:39.565Z,17.20
2022-08-18T03:04:07.241Z,17.30
2022-08-18T03:06:35.197Z,17.40
2022-08-18T03:09:01.712Z,17.50
2022-08-18T03:11:28.648Z,17.40
2022-08-18T03:13:55.965Z,16.60
2022-08-18T03:16:24.035Z,17.20
2022-08-18T03:18:51.112Z,17.20
2022-08-18T03:21:22.313Z,17.00
2022-08-18T03:24:01.305Z,17.40
2022-08-18T03:26:29.030Z,17.40
2022-08-18T03:28:55.309Z,17.20
2022-08-18T03:31:22.921Z,17.20
2022-08-18T03:33:51.374Z,17.30
2022-08-18T03:36:20.043Z,17.40
2022-08-18T03:38:47.482Z,17.50
2022-08-18T03:41:44.113Z,17.50
2022-08-18T03:44:32.933Z,17.40
2022-08-18T03:47:02.170Z,17.50
2022-08-18T03:49:28.488Z,17.50
2022-08-18T03:51:54.758Z,17.60
2022-08-18T03:54:21.250Z,17.60
2022-08-18T03:56:48.877Z,17.80
2022-08-18T03:59:20.613Z,17.80
2022-08-18T04:01:48.041Z,17.90
2022-08-18T04:04:16.869Z,17.80
2022-08-18T04:06:56.315Z,17.90
2022-08-18T04:09:24.211Z,18.20
2022-08-18T04:11:50.564Z,18.40
2022-08-18T04:14:18.651Z,18.90
2022-08-18T04:16:45.336Z,19.10
2022-08-18T04:19:12.985Z,19.30
2022-08-18T04:24:06.982Z,19.40
2022-08-18T04:26:38.497Z,19.50
2022-08-18T04:29:05.805Z,19.70
2022-08-18T04:31:32.584Z,20.00
2022-08-18T04:33:59.670Z,20.00
2022-08-18T04:36:26.005Z,19.90
2022-08-18T04:38:52.372Z,20.00
2022-08-18T04:41:25.631Z,20.00
2022-08-18T04:43:52.567Z,20.00
2022-08-18T04:46:19.637Z,20.00
2022-08-18T04:48:50.823Z,20.00
2022-08-18T04:52:37.264Z,20.00
2022-08-18T04:55:07.223Z,20.10
2022-08-18T04:57:34.093Z,20.20
2022-08-18T05:00:04.040Z,20.30
2022-08-18T05:02:33.139Z,20.40
2022-08-18T05:05:03.256Z,20.50
2022-08-18T05:07:30.257Z,20.70
2022-08-18T05:09:56.776Z,20.80
2022-08-18T05:12:26.525Z,20.80
2022-08-18T05:14:57.434Z,20.90
2022-08-18T05:17:28.526Z,20.80
2022-08-18T05:19:59.929Z,21.00
2022-08-18T05:22:30.637Z,21.00
2022-08-18T05:24:59.379Z,21.10
2022-08-18T05:27:30.166Z,21.30
2022-08-18T05:29:56.449Z,21.50
2022-08-18T05:32:37.077Z,21.60
2022-08-18T05:35:21.805Z,21.80
2022-08-18T05:38:08.231Z,21.90
2022-08-18T05:40:34.533Z,22.20
2022-08-18T05:43:00.791Z,22.50
2022-08-18T05:45:28.747Z,22.60
2022-08-18T05:48:01.670Z,22.90
2022-08-18T05:50:28.880Z,23.10
2022-08-18T05:53:13.234Z,23.10
2022-08-18T05:56:16.946Z,23.60
2022-08-18T05:58:46.029Z,24.00
2022-08-18T06:01:22.785Z,24.00
2022-08-18T06:03:55.312Z,24.50
2022-08-18T06:06:29.678Z,24.70
2022-08-18T06:09:22.003Z,25.10
2022-08-18T06:11:48.911Z,25.40
2022-08-18T06:14:16.073Z,25.60
2022-08-18T06:19:46.064Z,25.50
2022-08-18T06:26:00.999Z,25.70
2022-08-18T06:28:29.534Z,26.30
2022-08-18T06:31:07.367Z,26.60
2022-08-18T06:34:09.067Z,26.70
2022-08-18T06:39:42.983Z,27.70
2022-08-18T06:42:09.987Z,28.20
2022-08-18T06:44:40.491Z,28.00
2022-08-18T06:48:00.869Z,28.60
2022-08-18T06:51:12.440Z,28.60
2022-08-18T06:54:03.463Z,28.40
2022-08-18T06:56:49.887Z,29.60
2022-08-18T06:59:28.307Z,30.40
2022-08-18T07:03:50.452Z,30.20
2022-08-18T07:06:34.877Z,31.80
2022-08-18T07:09:22.693Z,31.20
2022-08-18T07:12:49.662Z,31.80
2022-08-18T07:15:22.831Z,33.20
2022-08-18T07:17:49.836Z,32.30
2022-08-18T07:20:23.895Z,32.60
2022-08-18T07:23:02.693Z,33.30
2022-08-18T07:25:45.494Z,33.80
2022-08-18T07:28:36.889Z,32.90
2022-08-18T07:31:47.605Z,32.60
2022-08-18T07:34:41.762Z,34.00
2022-08-18T07:37:39.144Z,33.90
2022-08-18T07:40:28.588Z,34.70
2022-08-18T07:43:17.477Z,35.80
2022-08-18T07:45:45.643Z,36.00
2022-08-18T07:48:38.806Z,34.30
2022-08-18T07:52:47.442Z,33.80
2022-08-18T07:55:36.647Z,33.40
2022-08-18T07:58:25.751Z,34.00
2022-08-18T08:01:29.814Z,34.60
2022-08-18T08:04:42.139Z,34.20
2022-08-18T08:07:25.393Z,33.70
2022-08-18T08:10:23.213Z,35.00
2022-08-18T08:14:26.355Z,35.50
2022-08-18T08:18:16.630Z,36.20
2022-08-18T08:20:51.651Z,36.60
2022-08-18T08:24:04.385Z,36.40
2022-08-18T08:31:37.968Z,36.30
2022-08-18T08:35:46.998Z,35.90
2022-08-18T08:38:42.213Z,35.90
2022-08-18T08:41:26.084Z,34.20
2022-08-18T08:45:27.699Z,34.80
2022-08-18T08:51:44.239Z,35.90
2022-08-18T08:54:23.665Z,35.30
2022-08-18T08:56:51.974Z,35.30
2022-08-18T08:59:25.386Z,36.10
2022-08-18T09:02:37.844Z,36.60
2022-08-18T09:05:43.480Z,36.30
2022-08-18T09:10:02.406Z,36.50
2022-08-18T09:13:07.802Z,36.30
2022-08-18T09:18:26.067Z,34.80
2022-08-18T09:21:27.276Z,35.70
2022-08-18T09:24:04.542Z,35.40
2022-08-18T09:26:54.161Z,35.70
2022-08-18T09:29:49.675Z,36.50
2022-08-18T09:32:44.871Z,35.80
2022-08-18T09:35:45.416Z,35.40
2022-08-18T09:38:40.124Z,35.30
2022-08-18T09:41:31.929Z,35.10
2022-08-18T09:44:09.538Z,34.20
2022-08-18T09:46:55.870Z,34.70
2022-08-18T09:49:47.538Z,35.00
2022-08-18T09:53:19.284Z,35.00
2022-08-18T09:55:57.946Z,34.60
2022-08-18T09:58:49.887Z,34.30
2022-08-18T10:01:40.095Z,33.70
2022-08-18T10:04:29.365Z,34.60
2022-08-18T10:07:20.319Z,34.70
2022-08-18T10:11:25.694Z,34.50
2022-08-18T10:14:33.007Z,35.70
2022-08-18T10:21:03.020Z,34.90
2022-08-18T13:07:18.984Z,34.30
2022-08-18T13:09:53.970Z,35.60
2022-08-18T13:12:22.224Z,36.20
2022-08-18T13:14:50.947Z,36.10
2022-08-18T13:17:33.308Z,36.10
2022-08-18T13:20:03.974Z,36.00
2022-08-18T13:22:32.864Z,35.60
2022-08-18T13:25:01.044Z,35.70
2022-08-18T13:27:30.938Z,35.40
2022-08-18T13:30:30.530Z,35.30
2022-08-18T13:33:05.211Z,34.60
2022-08-18T13:35:38.198Z,34.60
2022-08-18T13:38:22.033Z,34.00
2022-08-18T13:40:58.756Z,34.40
2022-08-18T13:43:35.735Z,35.10
2022-08-18T13:46:04.223Z,35.20
2022-08-18T13:48:31.321Z,35.40
2022-08-18T13:50:59.986Z,35.40
2022-08-18T13:53:31.636Z,35.60
2022-08-18T13:55:58.850Z,35.40
2022-08-18T13:58:28.185Z,35.10
2022-08-18T14:01:22.557Z,34.80
2022-08-18T14:04:07.348Z,34.60
2022-08-18T14:06:40.017Z,34.00
2022-08-18T14:09:19.341Z,33.80
2022-08-18T14:11:51.187Z,33.80
2022-08-18T14:14:17.796Z,33.50
2022-08-18T14:16:44.519Z,33.40
2022-08-18T14:19:30.623Z,33.60
2022-08-18T14:22:16.963Z,34.30
2022-08-18T14:25:03.515Z,34.70
2022-08-18T14:27:36.143Z,35.10
2022-08-18T14:30:06.333Z,35.10
2022-08-18T14:32:36.348Z,34.30
2022-08-18T14:35:32.014Z,33.80
2022-08-18T14:38:02.489Z,33.60
2022-08-18T14:40:31.661Z,33.90
2022-08-18T14:42:58.374Z,34.00
2022-08-18T14:45:27.720Z,34.10
2022-08-18T14:47:59.108Z,34.30
2022-08-18T14:50:27.069Z,34.40
2022-08-18T14:52:53.292Z,34.20
2022-08-18T14:55:19.919Z,34.00
2022-08-18T14:57:46.398Z,33.80
2022-08-18T15:00:16.274Z,33.70
2022-08-18T15:02:43.688Z,33.90
2022-08-18T15:05:19.569Z,33.80
2022-08-18T15:07:52.311Z,33.70
2022-08-18T15:10:23.744Z,33.50
2022-08-18T15:12:57.350Z,33.10
2022-08-18T15:15:25.082Z,33.30
2022-08-18T15:17:52.981Z,33.30
2022-08-18T15:20:23.985Z,33.30
2022-08-18T15:23:13.617Z,33.30
2022-08-18T15:25:44.256Z,33.20
2022-08-18T15:28:20.560Z,32.90
2022-08-18T15:30:51.080Z,32.80
2022-08-18T15:33:23.589Z,32.90
2022-08-18T15:35:52.957Z,32.80
2022-08-18T15:38:21.594Z,32.70
2022-08-18T15:40:59.467Z,32.70
2022-08-18T15:43:33.358Z,32.70
2022-08-18T15:46:00.871Z,32.70
2022-08-18T15:48:30.683Z,32.60
2022-08-18T15:50:56.961Z,32.70
2022-08-18T15:53:29.834Z,32.70
2022-08-18T15:56:04.337Z,34.10
2022-08-18T15:58:32.803Z,32.60
2022-08-18T16:01:00.155Z,32.40
2022-08-18T16:03:27.115Z,32.10
2022-08-18T16:05:56.791Z,32.10
2022-08-18T16:08:24.229Z,32.00
2022-08-18T16:10:51.026Z,32.00
2022-08-18T16:13:18.772Z,31.80
2022-08-18T16:15:47.542Z,31.60
2022-08-18T16:18:14.969Z,31.50
2022-08-18T16:20:42.749Z,31.40
2022-08-18T16:23:09.371Z,31.30
2022-08-18T16:25:39.225Z,31.10
2022-08-18T16:28:07.277Z,31.10
2022-08-18T16:30:34.343Z,31.10
2022-08-18T16:33:03.980Z,31.00
2022-08-18T16:35:31.230Z,30.90
2022-08-18T16:38:05.413Z,30.90
2022-08-18T16:40:32.172Z,30.80
2022-08-18T16:43:00.922Z,30.60
2022-08-18T16:45:29.135Z,30.60
2022-08-18T16:47:55.662Z,30.40
2022-08-18T16:50:23.318Z,30.20
2022-08-18T16:52:49.581Z,30.10
2022-08-18T16:55:15.872Z,30.00
2022-08-18T16:58:02.446Z,30.00
2022-08-18T17:00:51.506Z,29.90
2022-08-18T17:03:43.064Z,29.90
2022-08-18T17:06:11.510Z,29.60
2022-08-18T17:08:38.123Z,29.50
2022-08-18T17:11:09.050Z,29.40
2022-08-18T17:13:36.191Z,29.30
2022-08-18T17:16:03.443Z,29.20
2022-08-18T17:18:29.957Z,29.10
2022-08-18T17:21:00.404Z,29.10
2022-08-18T17:23:27.219Z,29.00
2022-08-18T17:25:53.959Z,28.90
2022-08-18T17:28:26.217Z,28.90
2022-08-18T17:30:53.144Z,28.90
2022-08-18T17:33:25.572Z,28.70
2022-08-18T17:35:53.868Z,28.70
2022-08-18T17:38:39.702Z,28.60
2022-08-18T17:41:06.707Z,28.50
2022-08-18T17:46:42.569Z,28.40
2022-08-18T17:49:14.506Z,28.30
2022-08-18T17:51:55.130Z,28.20
2022-08-18T17:54:32.156Z,28.10
2022-08-18T17:57:01.153Z,27.90
2022-08-18T17:59:45.671Z,27.80
2022-08-18T18:02:30.605Z,27.70
2022-08-18T18:05:03.123Z,27.50
2022-08-18T18:08:39.755Z,27.30
2022-08-18T18:11:10.853Z,27.20
2022-08-18T18:13:41.131Z,27.10
2022-08-18T18:16:26.445Z,27.00
2022-08-18T18:19:01.503Z,26.90
2022-08-18T18:21:55.272Z,27.00
2022-08-18T18:24:32.029Z,26.90
2022-08-18T18:27:05.718Z,26.80
2022-08-18T18:29:38.330Z,26.70
2022-08-18T18:32:29.948Z,26.60
2022-08-18T18:38:31.401Z,26.70
2022-08-18T18:41:04.614Z,26.50
2022-08-18T18:43:44.640Z,26.40
2022-08-18T18:46:38.959Z,26.30
2022-08-18T18:49:43.182Z,26.00
2022-08-18T18:52:31.247Z,26.00
2022-08-18T18:55:13.100Z,26.00
2022-08-18T19:00:55.844Z,25.90
2022-08-18T19:03:49.320Z,25.90
2022-08-18T19:06:51.275Z,25.80
2022-08-18T19:09:48.514Z,25.70
2022-08-18T19:12:22.542Z,25.70
2022-08-18T19:15:00.181Z,25.70
2022-08-18T19:18:07.062Z,25.70
2022-08-18T19:20:42.675Z,25.60
2022-08-18T19:24:30.147Z,25.60
2022-08-18T19:26:59.753Z,25.60
2022-08-18T19:29:31.862Z,25.50
2022-08-18T19:32:16.402Z,25.40
2022-08-18T19:34:51.387Z,25.50
2022-08-18T19:40:16.928Z,25.50
2022-08-18T19:42:53.109Z,25.60
2022-08-18T19:45:35.947Z,25.50
2022-08-18T19:48:56.265Z,25.40
2022-08-18T19:51:38.732Z,25.30
2022-08-18T20:01:00.042Z,25.30
2022-08-18T20:05:21.548Z,25.20
2022-08-18T20:08:31.718Z,25.10
2022-08-18T20:14:08.544Z,25.10
2022-08-18T20:16:43.755Z,24.70
2022-08-18T20:20:44.890Z,25.00
2022-08-18T20:23:31.260Z,24.90
2022-08-18T20:26:01.138Z,24.80
2022-08-18T20:28:36.940Z,24.90
2022-08-18T20:31:07.158Z,24.90
2022-08-18T20:33:37.420Z,24.90
2022-08-18T20:36:25.354Z,24.90
2022-08-18T20:38:56.024Z,24.80
2022-08-18T20:41:44.593Z,24.70
2022-08-18T20:45:42.685Z,24.70
2022-08-18T20:49:49.887Z,24.70
2022-08-18T20:52:41.089Z,24.50
2022-08-18T20:55:37.708Z,24.50
2022-08-18T20:58:12.164Z,24.50
2022-08-18T21:00:43.416Z,24.50
2022-08-18T21:03:15.186Z,24.40
2022-08-18T21:05:47.331Z,24.40
2022-08-18T21:08:29.403Z,24.40
2022-08-18T21:11:09.809Z,24.40
2022-08-18T21:14:10.878Z,24.40
2022-08-18T21:16:42.743Z,24.40
2022-08-18T21:19:19.005Z,24.40
2022-08-18T21:21:55.008Z,24.30
2022-08-18T21:24:45.316Z,24.30
2022-08-18T21:27:25.868Z,24.40
2022-08-18T21:29:57.284Z,24.50
2022-08-18T21:32:31.920Z,24.50
2022-08-18T21:35:05.640Z,24.50
2022-08-18T21:37:40.493Z,24.60
2022-08-18T21:40:08.420Z,24.50
2022-08-18T21:42:43.572Z,24.60
2022-08-18T21:45:15.800Z,24.70
2022-08-18T21:47:47.517Z,24.70
2022-08-18T21:50:17.804Z,24.90
2022-08-18T21:52:53.551Z,24.80
2022-08-18T21:55:31.554Z,24.70
2022-08-18T21:59:15.538Z,24.60
2022-08-18T22:01:53.076Z,24.60
2022-08-18T22:04:52.791Z,24.50
2022-08-18T22:07:24.980Z,24.50
2022-08-18T22:10:37.905Z,24.50
2022-08-18T22:13:22.842Z,24.50
2022-08-18T22:15:49.828Z,24.50
2022-08-18T22:18:35.613Z,24.50
2022-08-18T22:21:02.946Z,24.40
2022-08-18T22:24:13.906Z,24.30
2022-08-18T22:26:40.249Z,24.20
2022-08-18T22:29:47.907Z,24.10
2022-08-18T22:32:14.333Z,24.00
2022-08-18T22:34:41.245Z,24.90
2022-08-18T22:37:13.189Z,23.80
2022-08-18T22:39:45.730Z,23.70
2022-08-18T22:42:13.049Z,23.70
2022-08-18T22:44:41.190Z,23.90
2022-08-18T22:47:07.689Z,23.90
2022-08-18T22:49:36.392Z,23.90
2022-08-18T22:52:46.832Z,23.90
2022-08-18T22:55:14.346Z,24.10
2022-08-18T22:57:43.638Z,23.90
2022-08-18T23:00:22.945Z,23.80
2022-08-18T23:02:54.218Z,23.80
2022-08-18T23:05:21.257Z,23.80
2022-08-18T23:07:47.984Z,23.70
2022-08-18T23:10:16.001Z,23.70
2022-08-18T23:12:44.448Z,23.60
2022-08-18T23:15:13.424Z,23.70
2022-08-18T23:17:40.282Z,23.80
2022-08-18T23:20:09.657Z,23.80
2022-08-18T23:22:38.673Z,23.70
2022-08-18T23:25:08.704Z,23.60
2022-08-18T23:27:36.122Z,23.60
2022-08-18T23:30:02.762Z,23.60
2022-08-18T23:32:30.116Z,23.60
2022-08-18T23:34:58.645Z,23.70
2022-08-18T23:37:24.993Z,23.60
2022-08-18T23:39:51.448Z,23.70
2022-08-18T23:42:22.331Z,23.70
2022-08-18T23:44:49.572Z,23.60
2022-08-18T23:47:20.007Z,23.60
2022-08-18T23:49:46.661Z,23.60
2022-08-18T23:52:13.132Z,23.60
2022-08-18T23:54:39.473Z,23.50
2022-08-18T23:57:05.806Z,23.50
2022-08-18T23:59:32.155Z,23.40
